createdAt,value
2022-08-19T00:00:57.492Z,18.13
2022-08-19T00:06:03.501Z,21.00
2022-08-19T00:08:30.448Z,22.48
2022-08-19T00:10:59.136Z,22.65
2022-08-19T00:13:26.244Z,22.27
2022-08-19T00:15:59.718Z,22.60
2022-08-19T00:18:33.668Z,22.83
2022-08-19T00:21:19.792Z,24.70
2022-08-19T00:23:46.986Z,25.92
2022-08-19T00:28:49.116Z,24.25
2022-08-19T00:31:17.255Z,26.00
2022-08-19T00:33:44.496Z,25.15
2022-08-19T00:36:13.564Z,27.58
2022-08-19T00:38:43.874Z,26.05
2022-08-19T00:41:18.415Z,25.58
2022-08-19T00:44:11.174Z,24.35
2022-08-19T00:46:43.433Z,26.85
2022-08-19T00:49:35.411Z,25.05
2022-08-19T00:52:09.643Z,24.00
2022-08-19T00:54:41.012Z,25.33
2022-08-19T00:57:13.611Z,26.48
2022-08-19T01:00:01.048Z,24.80
2022-08-19T01:02:31.532Z,22.92
2022-08-19T01:05:10.211Z,22.67
2022-08-19T01:07:39.779Z,23.90
2022-08-19T01:12:53.526Z,21.02
2022-08-19T01:15:25.617Z,19.98
2022-08-19T01:17:56.047Z,20.70
2022-08-19T01:20:29.312Z,20.67
2022-08-19T01:23:04.708Z,20.48
2022-08-19T01:25:52.621Z,21.30
2022-08-19T01:28:34.094Z,22.90
2022-08-19T01:31:41.732Z,20.25
2022-08-19T01:34:11.017Z,20.05
2022-08-19T01:36:48.159Z,20.13
2022-08-19T01:39:45.570Z,18.52
2022-08-19T01:45:53.714Z,20.50
2022-08-19T01:48:53.768Z,19.45
2022-08-19T01:54:03.504Z,19.30
2022-08-19T01:56:31.240Z,20.08
2022-08-19T01:59:04.868Z,21.27
2022-08-19T02:01:33.498Z,20.50
2022-08-19T02:04:03.185Z,19.57
2022-08-19T02:09:07.192Z,21.27
2022-08-19T02:11:50.534Z,20.55
2022-08-19T02:14:19.554Z,21.48
2022-08-19T02:16:48.869Z,22.50
2022-08-19T02:19:22.205Z,31.85
2022-08-19T02:21:49.012Z,24.75
2022-08-19T02:24:15.936Z,28.92
2022-08-19T02:26:49.073Z,26.50
2022-08-19T02:29:18.200Z,29.05
2022-08-19T02:31:54.608Z,33.67
2022-08-19T02:34:29.082Z,26.23
2022-08-19T02:36:57.320Z,30.60
2022-08-19T02:39:25.659Z,29.67
2022-08-19T02:41:52.987Z,30.17
2022-08-19T02:44:29.791Z,33.50
2022-08-19T02:47:01.460Z,31.05
2022-08-19T02:49:37.122Z,27.55
2022-08-19T02:52:06.331Z,30.60
2022-08-19T02:54:36.505Z,24.15
2022-08-19T02:57:07.205Z,28.05
2022-08-19T02:59:34.369Z,35.63
2022-08-19T03:02:02.295Z,29.83
2022-08-19T03:04:30.595Z,31.08
2022-08-19T03:07:02.576Z,25.48
2022-08-19T03:09:38.847Z,26.70
2022-08-19T03:12:11.862Z,26.40
2022-08-19T03:14:42.117Z,29.90
2022-08-19T03:17:10.175Z,37.10
2022-08-19T03:19:41.054Z,23.92
2022-08-19T03:22:08.837Z,27.67
2022-08-19T03:24:44.857Z,27.50
2022-08-19T03:27:15.002Z,25.50
2022-08-19T03:29:47.518Z,29.50
2022-08-19T03:32:33.110Z,29.23
2022-08-19T03:35:11.706Z,27.60
2022-08-19T03:37:39.733Z,31.88
2022-08-19T03:40:09.388Z,31.67
2022-08-19T03:42:49.388Z,28.50
2022-08-19T03:45:17.172Z,29.55
2022-08-19T03:47:53.509Z,30.10
2022-08-19T03:50:22.305Z,30.90
2022-08-19T03:52:53.431Z,28.27
2022-08-19T03:55:27.841Z,32.50
2022-08-19T03:57:59.391Z,30.10
2022-08-19T04:00:37.797Z,34.00
2022-08-19T04:03:04.465Z,37.88
2022-08-19T04:16:21.201Z,29.95
2022-08-19T04:19:01.425Z,29.40
2022-08-19T04:21:32.163Z,34.33
2022-08-19T04:24:00.691Z,28.90
2022-08-19T04:26:33.328Z,28.35
2022-08-19T04:29:12.110Z,31.10
2022-08-19T04:31:41.844Z,30.00
2022-08-19T04:34:13.850Z,25.13
2022-08-19T04:36:42.161Z,23.63
2022-08-19T04:39:17.743Z,31.08
2022-08-19T04:42:14.941Z,22.83
2022-08-19T04:44:47.418Z,22.15
2022-08-19T04:47:49.148Z,21.50
2022-08-19T04:50:23.769Z,25.75
2022-08-19T04:52:53.449Z,22.70
2022-08-19T04:55:28.481Z,20.65
2022-08-19T04:57:57.372Z,23.27
2022-08-19T05:00:29.310Z,23.20
2022-08-19T05:02:57.155Z,19.20
2022-08-19T05:05:28.322Z,19.35
2022-08-19T05:07:56.885Z,14.93
2022-08-19T05:21:34.508Z,15.30
2022-08-19T05:26:48.663Z,12.27
2022-08-19T05:29:27.287Z,13.90
2022-08-19T05:32:14.415Z,15.77
2022-08-19T05:37:16.630Z,19.23
2022-08-19T05:39:51.423Z,12.38
2022-08-19T05:45:00.732Z,16.23
2022-08-19T05:47:38.787Z,14.77
2022-08-19T05:50:10.414Z,13.45
2022-08-19T05:52:43.624Z,13.55
2022-08-19T05:55:16.757Z,12.95
2022-08-19T05:57:44.659Z,12.05
2022-08-19T06:02:42.019Z,13.30
2022-08-19T06:05:10.007Z,13.95
2022-08-19T06:07:38.042Z,12.32
2022-08-19T06:10:09.933Z,12.52
2022-08-19T06:12:39.102Z,14.13
2022-08-19T06:15:14.387Z,13.77
2022-08-19T06:17:42.710Z,15.43
2022-08-19T06:20:14.465Z,16.80
2022-08-19T06:22:43.160Z,12.95
2022-08-19T06:25:11.280Z,14.17
2022-08-19T06:27:45.059Z,15.00
2022-08-19T06:30:25.166Z,11.57
2022-08-19T06:32:52.390Z,12.13
2022-08-19T06:35:20.194Z,10.77
2022-08-19T06:37:47.994Z,14.30
2022-08-19T06:40:15.588Z,12.60
2022-08-19T06:42:44.806Z,12.75
2022-08-19T06:45:25.175Z,15.20
2022-08-19T06:50:30.449Z,14.07
2022-08-19T06:52:57.450Z,9.65
2022-08-19T06:55:31.109Z,10.65
2022-08-19T06:58:04.655Z,14.55
2022-08-19T07:00:33.071Z,10.10
2022-08-19T07:03:06.050Z,14.95
2022-08-19T07:05:45.875Z,9.85
2022-08-19T07:08:14.203Z,10.85
2022-08-19T07:10:45.444Z,17.52
2022-08-19T07:13:12.515Z,8.13
2022-08-19T07:15:39.881Z,9.18
2022-08-19T07:18:06.838Z,9.98
2022-08-19T07:20:33.917Z,8.50
2022-08-19T07:23:01.711Z,9.02
2022-08-19T07:25:34.108Z,7.45
2022-08-19T07:28:01.779Z,9.63
2022-08-19T07:30:28.890Z,8.20
2022-08-19T07:32:57.111Z,7.47
2022-08-19T07:35:24.781Z,7.07
2022-08-19T07:37:51.796Z,8.07
2022-08-19T07:40:18.835Z,9.82
2022-08-19T07:42:45.878Z,9.80
2022-08-19T07:45:13.225Z,7.47
2022-08-19T07:47:47.435Z,6.57
2022-08-19T07:50:16.333Z,5.78
2022-08-19T07:52:45.169Z,6.32
2022-08-19T07:55:41.763Z,5.43
2022-08-19T07:58:05.902Z,6.10
2022-08-19T08:00:33.108Z,7.72
2022-08-19T08:02:59.954Z,10.07
2022-08-19T08:05:45.828Z,9.98
2022-08-19T08:08:44.059Z,6.32
2022-08-19T08:11:17.640Z,7.95
2022-08-19T08:13:47.193Z,5.70
2022-08-19T08:16:32.135Z,10.05
2022-08-19T08:18:59.294Z,7.68
2022-08-19T08:21:26.300Z,12.98
2022-08-19T08:23:56.543Z,8.35
2022-08-19T08:26:24.057Z,8.55
2022-08-19T08:28:51.626Z,6.65
2022-08-19T08:31:20.021Z,6.72
2022-08-19T08:33:47.889Z,9.63
2022-08-19T08:36:15.847Z,6.68
2022-08-19T08:38:46.630Z,7.35
2022-08-19T08:41:27.028Z,11.40
2022-08-19T08:43:54.390Z,7.90
2022-08-19T08:46:40.999Z,6.57
2022-08-19T08:49:29.036Z,7.13
2022-08-19T08:52:16.546Z,8.75
2022-08-19T08:54:48.999Z,23.67
2022-08-19T08:57:24.904Z,8.88
2022-08-19T08:59:54.673Z,9.00
2022-08-19T09:02:21.505Z,9.00
2022-08-19T09:04:49.466Z,7.57
2022-08-19T09:07:57.988Z,9.85
2022-08-19T09:10:44.239Z,9.27
2022-08-19T09:13:37.467Z,9.90
2022-08-19T09:16:15.832Z,11.63
2022-08-19T09:18:48.180Z,13.05
2022-08-19T09:21:16.324Z,7.35
2022-08-19T09:23:44.607Z,6.78
2022-08-19T09:26:14.533Z,7.93
2022-08-19T09:28:45.281Z,9.38
2022-08-19T09:31:21.522Z,10.52
2022-08-19T09:33:49.178Z,15.50
2022-08-19T09:36:29.552Z,8.93
2022-08-19T09:39:01.497Z,12.60
2022-08-19T09:41:29.881Z,10.35
2022-08-19T09:43:58.994Z,10.55
2022-08-19T09:46:28.991Z,9.85
2022-08-19T09:49:02.981Z,14.27
2022-08-19T09:51:34.002Z,10.95
2022-08-19T09:54:04.843Z,11.27
2022-08-19T09:56:32.892Z,8.95
2022-08-19T09:59:04.489Z,8.77
2022-08-19T10:01:33.435Z,8.48
2022-08-19T10:04:01.382Z,7.43
2022-08-19T10:06:45.539Z,7.90
2022-08-19T10:09:14.058Z,7.55
2022-08-19T10:11:51.064Z,6.82
2022-08-19T10:14:23.509Z,14.88
2022-08-19T10:16:51.642Z,13.00
2022-08-19T10:19:25.522Z,13.27
2022-08-19T10:21:54.208Z,5.70
2022-08-19T10:24:21.682Z,5.07
2022-08-19T10:26:55.937Z,6.03
2022-08-19T10:29:32.148Z,5.13
2022-08-19T10:32:09.384Z,7.25
2022-08-19T10:34:48.769Z,5.97
2022-08-19T10:37:23.959Z,5.13
2022-08-19T10:39:56.176Z,9.15
2022-08-19T10:42:23.231Z,12.20
2022-08-19T10:44:51.844Z,4.40
2022-08-19T10:47:24.945Z,6.82
2022-08-19T10:50:13.264Z,6.35
2022-08-19T10:52:49.660Z,3.47
2022-08-19T10:55:38.728Z,4.45
2022-08-19T10:58:11.021Z,4.20
2022-08-19T11:00:38.209Z,3.72
2022-08-19T11:03:05.237Z,3.83
2022-08-19T11:05:39.968Z,6.10
2022-08-19T11:08:22.955Z,3.58
2022-08-19T11:10:54.492Z,3.20
2022-08-19T11:13:21.800Z,4.35
2022-08-19T11:15:57.167Z,3.17
2022-08-19T11:18:24.098Z,4.50
2022-08-19T11:20:51.134Z,4.43
2022-08-19T11:23:18.179Z,4.60
2022-08-19T11:25:46.252Z,2.92
2022-08-19T11:28:13.610Z,6.20
2022-08-19T11:30:41.569Z,4.88
2022-08-19T11:33:08.433Z,2.42
2022-08-19T11:35:41.068Z,4.57
2022-08-19T11:38:09.845Z,9.10
2022-08-19T11:40:37.055Z,5.93
2022-08-19T11:43:04.375Z,12.52
2022-08-19T11:45:31.929Z,5.72
2022-08-19T11:47:58.987Z,2.25
2022-08-19T11:50:26.110Z,2.28
2022-08-19T11:52:57.255Z,5.45
2022-08-19T11:55:24.487Z,3.08
2022-08-19T11:57:51.257Z,4.72
2022-08-19T12:00:18.088Z,1.80
2022-08-19T12:02:44.996Z,2.58
2022-08-19T12:05:13.053Z,2.53
2022-08-19T12:07:41.764Z,2.13
2022-08-19T12:10:09.354Z,2.75
2022-08-19T12:12:41.345Z,3.47
2022-08-19T12:15:08.937Z,2.20
2022-08-19T12:17:35.758Z,11.30
2022-08-19T12:20:03.758Z,5.47
2022-08-19T12:22:30.733Z,2.70
2022-08-19T12:24:59.291Z,5.32
2022-08-19T12:27:35.692Z,1.58
2022-08-19T12:30:10.163Z,2.45
2022-08-19T12:32:37.665Z,7.30
2022-08-19T12:35:05.761Z,3.00
2022-08-19T12:37:33.189Z,2.13
2022-08-19T12:40:00.461Z,5.00
2022-08-19T12:42:27.980Z,2.88
2022-08-19T12:44:55.764Z,2.65
2022-08-19T12:47:23.408Z,3.10
2022-08-19T12:49:55.216Z,7.63
2022-08-19T12:52:24.690Z,3.60
2022-08-19T12:54:55.000Z,4.10
2022-08-19T12:57:31.671Z,0.80
2022-08-19T13:00:01.777Z,4.55
2022-08-19T13:02:33.148Z,5.97
2022-08-19T13:05:09.076Z,1.58
2022-08-19T13:07:36.916Z,2.45
2022-08-19T13:10:04.646Z,4.20
2022-08-19T13:12:31.528Z,2.72
2022-08-19T13:14:58.559Z,2.10
2022-08-19T13:17:25.588Z,1.73
2022-08-19T13:19:52.614Z,7.20
2022-08-19T13:22:19.828Z,1.98
2022-08-19T13:24:47.551Z,2.70
2022-08-19T13:27:15.422Z,2.13
2022-08-19T13:30:01.133Z,5.10
2022-08-19T13:32:48.035Z,2.05
2022-08-19T13:35:17.224Z,4.25
2022-08-19T13:37:44.569Z,3.80
2022-08-19T13:40:18.097Z,6.22
2022-08-19T13:42:48.322Z,7.95
2022-08-19T13:45:18.915Z,4.50
2022-08-19T13:47:49.874Z,3.97
2022-08-19T13:50:20.416Z,4.32
2022-08-19T13:52:49.325Z,2.85
2022-08-19T13:55:24.639Z,2.80
2022-08-19T13:57:53.984Z,8.10
2022-08-19T14:00:23.137Z,4.47
2022-08-19T14:02:53.181Z,3.03
2022-08-19T14:05:20.845Z,1.42
2022-08-19T14:07:49.058Z,3.90
2022-08-19T14:10:17.368Z,1.52
2022-08-19T14:12:44.208Z,2.08
2022-08-19T14:15:12.285Z,2.80
2022-08-19T14:17:41.451Z,5.20
2022-08-19T14:20:11.371Z,7.78
2022-08-19T14:22:46.802Z,2.47
2022-08-19T14:25:18.121Z,2.28
2022-08-19T14:27:45.377Z,1.95
2022-08-19T14:30:15.522Z,1.88
2022-08-19T14:32:44.196Z,1.77
2022-08-19T14:35:13.694Z,7.07
2022-08-19T14:37:45.293Z,1.30
2022-08-19T14:40:15.122Z,2.05
2022-08-19T14:45:11.693Z,1.50
2022-08-19T14:47:46.902Z,1.38
2022-08-19T14:50:18.300Z,1.83
2022-08-19T14:52:48.705Z,3.88
2022-08-19T14:55:16.873Z,2.17
2022-08-19T14:57:44.606Z,1.45
2022-08-19T15:00:15.300Z,4.65
2022-08-19T15:02:44.971Z,2.22
2022-08-19T15:05:12.393Z,2.38
2022-08-19T15:07:40.274Z,1.63
2022-08-19T15:10:08.891Z,1.35
2022-08-19T15:12:36.161Z,1.88
2022-08-19T15:15:03.672Z,1.52
2022-08-19T15:17:45.954Z,3.45
2022-08-19T15:20:18.976Z,4.22
2022-08-19T15:22:46.216Z,5.65
2022-08-19T15:25:16.377Z,2.33
2022-08-19T15:27:44.152Z,5.18
2022-08-19T15:30:12.534Z,1.90
2022-08-19T15:32:40.008Z,2.27
2022-08-19T15:35:08.144Z,2.78
2022-08-19T15:37:37.486Z,3.53
2022-08-19T15:40:07.455Z,1.95
2022-08-19T15:42:37.504Z,1.55
2022-08-19T15:45:09.882Z,3.20
2022-08-19T15:47:38.752Z,2.67
2022-08-19T15:50:12.401Z,4.15
2022-08-19T15:52:57.996Z,2.30
2022-08-19T15:55:33.275Z,2.60
2022-08-19T15:58:28.585Z,3.83
2022-08-19T16:01:20.643Z,1.80
2022-08-19T16:04:14.112Z,2.22
2022-08-19T16:06:43.895Z,2.63
2022-08-19T16:09:10.853Z,1.67
2022-08-19T16:11:39.760Z,3.33
2022-08-19T16:14:09.391Z,2.38
2022-08-19T16:16:38.460Z,1.65
2022-08-19T16:19:10.654Z,2.10
2022-08-19T16:21:40.455Z,3.80
2022-08-19T16:24:11.994Z,4.70
2022-08-19T16:26:39.976Z,3.15
2022-08-19T16:29:12.178Z,6.00
2022-08-19T16:31:43.538Z,1.70
2022-08-19T16:34:12.076Z,12.55
2022-08-19T16:36:41.764Z,4.80
2022-08-19T16:39:10.477Z,2.85
2022-08-19T16:41:37.781Z,3.40
2022-08-19T16:44:07.134Z,9.85
2022-08-19T16:49:00.872Z,3.38
2022-08-19T16:51:28.417Z,6.55
2022-08-19T16:53:55.844Z,4.63
2022-08-19T16:56:25.433Z,2.85
2022-08-19T16:58:52.328Z,2.72
2022-08-19T17:01:19.750Z,3.67
2022-08-19T17:03:48.550Z,2.38
2022-08-19T17:06:20.876Z,1.67
2022-08-19T17:08:53.109Z,1.70
2022-08-19T17:11:21.396Z,3.22
2022-08-19T17:13:50.269Z,2.17
2022-08-19T17:16:19.850Z,2.53
2022-08-19T17:18:46.832Z,2.08
2022-08-19T17:21:13.902Z,1.63
2022-08-19T17:23:43.273Z,2.03
2022-08-19T17:26:16.763Z,3.03
2022-08-19T17:28:50.831Z,3.50
2022-08-19T17:31:20.360Z,3.17
2022-08-19T17:33:48.616Z,5.03
2022-08-19T17:36:26.272Z,2.35
2022-08-19T17:38:55.257Z,2.80
2022-08-19T17:41:24.194Z,4.07
2022-08-19T17:43:51.643Z,3.47
2022-08-19T17:46:20.483Z,4.38
2022-08-19T17:48:52.217Z,5.35
2022-08-19T17:51:40.167Z,2.85
2022-08-19T17:54:18.733Z,4.47
2022-08-19T17:56:46.786Z,4.97
2022-08-19T17:59:14.809Z,4.53
2022-08-19T18:01:54.255Z,3.97
2022-08-19T18:04:24.830Z,3.95
2022-08-19T18:06:54.414Z,2.30
2022-08-19T18:09:41.847Z,3.13
2022-08-19T18:12:14.127Z,2.85
2022-08-19T18:14:41.638Z,5.85
2022-08-19T18:17:12.637Z,2.88
2022-08-19T18:19:43.250Z,3.47
2022-08-19T18:22:28.208Z,1.90
2022-08-19T18:24:57.013Z,2.88
2022-08-19T18:27:25.544Z,8.82
2022-08-19T18:29:58.972Z,1.10
2022-08-19T18:32:38.165Z,2.88
2022-08-19T18:35:10.938Z,5.97
2022-08-19T18:37:38.956Z,2.30
2022-08-19T18:40:25.979Z,1.65
2022-08-19T18:43:11.498Z,4.07
2022-08-19T18:45:58.191Z,3.05
2022-08-19T18:48:44.041Z,6.07
2022-08-19T18:51:14.336Z,1.25
2022-08-19T18:53:42.518Z,3.00
2022-08-19T18:56:13.350Z,1.45
2022-08-19T18:58:41.581Z,2.22
2022-08-19T19:01:14.882Z,2.05
2022-08-19T19:03:45.603Z,2.75
2022-08-19T19:06:19.649Z,2.50
2022-08-19T19:08:48.205Z,1.92
2022-08-19T19:11:19.612Z,2.37
2022-08-19T19:13:46.996Z,3.85
2022-08-19T19:16:14.024Z,2.17
2022-08-19T19:18:42.495Z,2.55
2022-08-19T19:21:10.316Z,1.63
2022-08-19T19:23:40.734Z,7.13
2022-08-19T19:26:12.649Z,1.70
2022-08-19T19:28:46.133Z,1.92
2022-08-19T19:31:19.410Z,1.52
2022-08-19T19:33:46.594Z,4.72
2022-08-19T19:36:14.751Z,3.53
2022-08-19T19:38:48.363Z,3.25
2022-08-19T19:41:19.474Z,4.85
2022-08-19T19:43:46.345Z,1.88
2022-08-19T19:46:13.824Z,2.30
2022-08-19T19:48:40.856Z,3.42
2022-08-19T19:51:07.889Z,2.83
2022-08-19T19:53:34.960Z,3.00
2022-08-19T19:56:04.182Z,1.92
2022-08-19T19:58:32.589Z,2.30
2022-08-19T20:00:59.539Z,1.08
2022-08-19T20:03:27.318Z,2.40
2022-08-19T20:05:58.120Z,3.47
2022-08-19T20:08:45.476Z,2.78
2022-08-19T20:11:16.540Z,2.83
2022-08-19T20:13:43.295Z,1.05
2022-08-19T20:16:10.424Z,4.53
2022-08-19T20:18:38.798Z,1.98
2022-08-19T20:21:06.021Z,7.53
2022-08-19T20:23:33.521Z,1.90
2022-08-19T20:26:00.585Z,2.60
2022-08-19T20:28:28.133Z,2.30
2022-08-19T20:30:55.089Z,1.60
2022-08-19T20:33:22.224Z,2.30
2022-08-19T20:35:49.245Z,3.80
2022-08-19T20:38:16.213Z,1.70
2022-08-19T20:40:43.407Z,4.05
2022-08-19T20:43:12.365Z,3.25
2022-08-19T20:45:39.635Z,2.05
2022-08-19T20:48:08.473Z,4.20
2022-08-19T20:50:37.121Z,2.28
2022-08-19T20:53:16.421Z,1.87
2022-08-19T20:55:45.131Z,2.88
2022-08-19T20:58:13.365Z,1.63
2022-08-19T21:00:41.576Z,5.55
2022-08-19T21:03:08.433Z,2.40
2022-08-19T21:05:36.075Z,2.00
2022-08-19T21:08:04.521Z,4.35
2022-08-19T21:10:32.136Z,3.38
2022-08-19T21:12:59.076Z,4.57
2022-08-19T21:15:26.156Z,3.33
2022-08-19T21:17:53.177Z,3.75
2022-08-19T21:20:20.370Z,4.07
2022-08-19T21:22:47.405Z,3.20
2022-08-19T21:25:16.457Z,5.30
2022-08-19T21:27:43.469Z,2.75
2022-08-19T21:30:11.013Z,3.88
2022-08-19T21:32:37.897Z,3.15
2022-08-19T21:35:05.423Z,4.70
2022-08-19T21:37:36.304Z,4.20
2022-08-19T21:40:03.670Z,2.22
2022-08-19T21:42:30.721Z,4.10
2022-08-19T21:44:57.736Z,2.60
2022-08-19T21:47:24.680Z,2.40
2022-08-19T21:49:51.973Z,2.50
2022-08-19T21:52:26.553Z,5.95
2022-08-19T21:54:55.189Z,3.88
2022-08-19T21:57:24.455Z,7.57
2022-08-19T21:59:52.566Z,3.50
2022-08-19T22:02:20.981Z,8.18
2022-08-19T22:04:50.228Z,6.65
2022-08-19T22:07:18.145Z,4.70
2022-08-19T22:09:46.698Z,3.35
2022-08-19T22:12:24.412Z,2.50
2022-08-19T22:14:53.040Z,14.25
2022-08-19T22:17:21.179Z,4.70
2022-08-19T22:19:48.168Z,7.88
2022-08-19T22:22:21.469Z,4.35
2022-08-19T22:24:48.510Z,4.35
2022-08-19T22:27:15.579Z,6.57
2022-08-19T22:29:42.638Z,7.28
2022-08-19T22:32:25.637Z,3.53
2022-08-19T22:34:56.663Z,5.28
2022-08-19T22:37:23.517Z,6.50
2022-08-19T22:39:50.585Z,7.95
2022-08-19T22:42:21.929Z,6.63
2022-08-19T22:44:48.877Z,5.28
2022-08-19T22:47:16.048Z,7.13
2022-08-19T22:49:43.028Z,5.53
2022-08-19T22:52:17.464Z,5.22
2022-08-19T22:54:52.283Z,6.43
2022-08-19T22:57:20.041Z,9.05
2022-08-19T22:59:48.461Z,5.53
2022-08-19T23:02:27.821Z,6.82
2022-08-19T23:04:55.065Z,5.15
2022-08-19T23:07:23.593Z,5.13
2022-08-19T23:09:51.011Z,9.05
2022-08-19T23:12:30.808Z,4.88
2022-08-19T23:15:03.144Z,5.90
2022-08-19T23:17:29.854Z,4.15
2022-08-19T23:19:56.941Z,7.00
2022-08-19T23:22:24.864Z,5.53
2022-08-19T23:24:56.037Z,7.32
2022-08-19T23:27:41.576Z,4.03
2022-08-19T23:30:27.221Z,5.57
2022-08-19T23:32:59.336Z,5.25
2022-08-19T23:35:31.028Z,3.90
2022-08-19T23:37:57.680Z,6.40
2022-08-19T23:40:24.524Z,3.45
2022-08-19T23:42:51.537Z,6.88
2022-08-19T23:45:23.642Z,6.57
2022-08-19T23:47:53.245Z,7.45
2022-08-19T23:50:21.984Z,7.82
2022-08-19T23:52:55.679Z,5.72
2022-08-19T23:55:27.684Z,7.32
2022-08-19T23:57:55.073Z,7.38
